createdAt,value
2023-02-12T00:00:03.996Z,97372
2023-02-12T00:01:12.503Z,97374
2023-02-12T00:02:22.274Z,97369
2023-02-12T00:03:31.966Z,97369
2023-02-12T00:04:41.823Z,97368
2023-02-12T00:05:50.536Z,97365
2023-02-12T00:07:00.266Z,97362
2023-02-12T00:08:10.023Z,97359
2023-02-12T00:09:19.788Z,97361
2023-02-12T00:10:29.542Z,97360
2023-02-12T00:11:39.249Z,97366
2023-02-12T00:12:49.038Z,97365
2023-02-12T00:13:58.809Z,97364
2023-02-12T00:15:08.511Z,97363
2023-02-12T00:16:18.404Z,97359
2023-02-12T00:17:27.981Z,97358
2023-02-12T00:18:37.711Z,97351
2023-02-12T00:19:48.432Z,97349
2023-02-12T00:20:58.148Z,97343
2023-02-12T00:22:07.909Z,97343
2023-02-12T00:23:17.652Z,97344
2023-02-12T00:24:27.369Z,97348
2023-02-12T00:25:37.157Z,97351
2023-02-12T00:26:46.844Z,97351
2023-02-12T00:27:56.744Z,97349
2023-02-12T00:29:06.347Z,97354
2023-02-12T00:30:16.061Z,97347
2023-02-12T00:31:24.955Z,97357
2023-02-12T00:32:34.518Z,97361
2023-02-12T00:33:44.287Z,97360
2023-02-12T00:34:52.998Z,97367
2023-02-12T00:36:02.674Z,97362
2023-02-12T00:37:11.333Z,97363
2023-02-12T00:38:20.993Z,97364
2023-02-12T00:39:29.725Z,97364
2023-02-12T00:40:39.476Z,97359
2023-02-12T00:41:49.193Z,97357
2023-02-12T00:42:58.922Z,97354
2023-02-12T00:44:08.614Z,97356
2023-02-12T00:45:18.294Z,97354
2023-02-12T00:46:28.015Z,97358
2023-02-12T00:47:36.598Z,97355
2023-02-12T00:48:45.252Z,97352
2023-02-12T00:49:53.913Z,97352
2023-02-12T00:51:03.731Z,97348
2023-02-12T00:52:13.424Z,97349
2023-02-12T00:53:23.147Z,97356
2023-02-12T00:54:32.869Z,97359
2023-02-12T00:55:41.613Z,97359
2023-02-12T00:56:50.305Z,97362
2023-02-12T00:57:59.027Z,97360
2023-02-12T00:59:08.763Z,97370
2023-02-12T01:00:18.497Z,97366
2023-02-12T01:01:27.233Z,97369
2023-02-12T01:02:37.103Z,97367
2023-02-12T01:03:46.812Z,97370
2023-02-12T01:04:56.605Z,97374
2023-02-12T01:06:06.267Z,97376
2023-02-12T01:07:15.104Z,97371
2023-02-12T01:08:24.078Z,97368
2023-02-12T01:09:33.842Z,97365
2023-02-12T01:10:43.559Z,97362
2023-02-12T01:11:52.292Z,97359
2023-02-12T01:13:02.002Z,97362
2023-02-12T01:14:10.704Z,97360
2023-02-12T01:15:20.368Z,97354
2023-02-12T01:16:29.127Z,97353
2023-02-12T01:17:37.784Z,97347
2023-02-12T01:18:47.432Z,97352
2023-02-12T01:19:56.102Z,97354
2023-02-12T01:21:05.806Z,97356
2023-02-12T01:22:15.562Z,97357
2023-02-12T01:23:25.323Z,97354
2023-02-12T01:24:34.102Z,97358
2023-02-12T01:25:42.779Z,97359
2023-02-12T01:26:51.454Z,97360
2023-02-12T01:28:01.169Z,97363
2023-02-12T01:29:10.797Z,97363
2023-02-12T01:30:20.493Z,97369
2023-02-12T01:31:30.399Z,97367
2023-02-12T01:32:39.989Z,97363
2023-02-12T01:33:48.712Z,97365
2023-02-12T01:34:58.443Z,97367
2023-02-12T01:36:08.144Z,97359
2023-02-12T01:37:17.839Z,97364
2023-02-12T01:38:26.498Z,97364
2023-02-12T01:39:36.252Z,97363
2023-02-12T01:40:45.993Z,97366
2023-02-12T01:41:55.724Z,97369
2023-02-12T01:43:04.495Z,97369
2023-02-12T01:44:14.189Z,97372
2023-02-12T01:45:23.873Z,97367
2023-02-12T01:46:33.606Z,97368
2023-02-12T01:47:43.219Z,97369
2023-02-12T01:48:51.881Z,97363
2023-02-12T01:50:01.584Z,97363
2023-02-12T01:51:11.348Z,97364
2023-02-12T01:52:21.075Z,97365
2023-02-12T01:53:29.791Z,97367
2023-02-12T01:54:38.542Z,97364
2023-02-12T01:55:47.220Z,97368
2023-02-12T01:56:55.865Z,97368
2023-02-12T01:58:04.519Z,97363
2023-02-12T01:59:12.203Z,97361
2023-02-12T02:00:22.035Z,97363
2023-02-12T02:01:31.797Z,97356
2023-02-12T02:02:40.520Z,97355
2023-02-12T02:03:50.332Z,97352
2023-02-12T02:04:58.997Z,97355
2023-02-12T02:06:07.809Z,97353
2023-02-12T02:07:17.646Z,97352
2023-02-12T02:08:26.397Z,97354
2023-02-12T02:09:36.140Z,97351
2023-02-12T02:10:45.866Z,97355
2023-02-12T02:11:54.645Z,97352
2023-02-12T02:13:04.382Z,97351
2023-02-12T02:14:14.199Z,97353
2023-02-12T02:15:23.915Z,97354
2023-02-12T02:16:33.739Z,97356
2023-02-12T02:17:43.573Z,97356
2023-02-12T02:18:53.199Z,97355
2023-02-12T02:20:02.937Z,97360
2023-02-12T02:21:10.903Z,97356
2023-02-12T02:22:21.045Z,97354
2023-02-12T02:23:30.843Z,97354
2023-02-12T02:24:39.587Z,97352
2023-02-12T02:25:49.317Z,97351
2023-02-12T02:26:59.099Z,97352
2023-02-12T02:28:08.871Z,97349
2023-02-12T02:29:18.641Z,97350
2023-02-12T02:30:28.391Z,97352
2023-02-12T02:31:37.281Z,97351
2023-02-12T02:32:46.960Z,97348
2023-02-12T02:33:56.677Z,97349
2023-02-12T02:35:06.400Z,97352
2023-02-12T02:36:16.104Z,97348
2023-02-12T02:37:26.763Z,97349
2023-02-12T02:38:36.416Z,97346
2023-02-12T02:39:44.084Z,97343
2023-02-12T02:40:52.831Z,97348
2023-02-12T02:42:02.578Z,97348
2023-02-12T02:43:12.327Z,97348
2023-02-12T02:44:22.064Z,97341
2023-02-12T02:45:30.749Z,97338
2023-02-12T02:46:40.487Z,97338
2023-02-12T02:47:50.098Z,97336
2023-02-12T02:48:57.771Z,97337
2023-02-12T02:50:06.418Z,97333
2023-02-12T02:51:15.154Z,97328
2023-02-12T02:52:24.945Z,97331
2023-02-12T02:53:34.662Z,97336
2023-02-12T02:54:44.390Z,97331
2023-02-12T02:55:54.336Z,97331
2023-02-12T02:57:03.808Z,97332
2023-02-12T02:58:11.489Z,97330
2023-02-12T02:59:21.184Z,97326
2023-02-12T03:00:30.917Z,97327
2023-02-12T03:01:40.594Z,97324
2023-02-12T03:02:50.396Z,97331
2023-02-12T03:03:59.030Z,97333
2023-02-12T03:05:08.654Z,97337
2023-02-12T03:06:18.372Z,97337
2023-02-12T03:07:27.064Z,97344
2023-02-12T03:08:35.818Z,97344
2023-02-12T03:09:45.565Z,97344
2023-02-12T03:10:55.223Z,97350
2023-02-12T03:12:04.931Z,97349
2023-02-12T03:13:12.628Z,97349
2023-02-12T03:14:22.300Z,97351
2023-02-12T03:15:35.579Z,97347
2023-02-12T03:16:45.301Z,97348
2023-02-12T03:17:54.009Z,97354
2023-02-12T03:19:03.660Z,97352
2023-02-12T03:20:13.309Z,97352
2023-02-12T03:21:23.025Z,97351
2023-02-12T03:22:32.701Z,97355
2023-02-12T03:23:41.387Z,97357
2023-02-12T03:24:51.112Z,97359
2023-02-12T03:25:58.779Z,97361
2023-02-12T03:27:07.461Z,97349
2023-02-12T03:28:16.195Z,97359
2023-02-12T03:29:24.779Z,97352
2023-02-12T03:30:34.476Z,97358
2023-02-12T03:31:44.171Z,97361
2023-02-12T03:32:52.986Z,97362
2023-02-12T03:34:02.679Z,97359
2023-02-12T03:35:12.334Z,97361
2023-02-12T03:36:20.998Z,97359
2023-02-12T03:37:30.744Z,97356
2023-02-12T03:38:39.474Z,97362
2023-02-12T03:39:49.235Z,97355
2023-02-12T03:40:56.870Z,97353
2023-02-12T03:42:05.551Z,97353
2023-02-12T03:43:15.187Z,97354
2023-02-12T03:44:22.889Z,97352
2023-02-12T03:45:32.587Z,97354
2023-02-12T03:46:41.258Z,97353
2023-02-12T03:47:49.920Z,97358
2023-02-12T03:48:59.616Z,97355
2023-02-12T03:50:08.493Z,97358
2023-02-12T03:51:18.154Z,97354
2023-02-12T03:52:25.803Z,97357
2023-02-12T03:53:34.515Z,97359
2023-02-12T03:54:44.200Z,97362
2023-02-12T03:55:53.075Z,97363
2023-02-12T03:57:01.635Z,97369
2023-02-12T03:58:10.455Z,97362
2023-02-12T03:59:20.138Z,97362
2023-02-12T04:00:29.797Z,97368
2023-02-12T04:01:37.665Z,97362
2023-02-12T04:02:46.163Z,97363
2023-02-12T04:03:55.870Z,97364
2023-02-12T04:05:03.534Z,97362
2023-02-12T04:06:12.234Z,97368
2023-02-12T04:07:21.917Z,97369
2023-02-12T04:08:30.592Z,97369
2023-02-12T04:09:40.299Z,97375
2023-02-12T04:10:48.976Z,97378
2023-02-12T04:11:57.687Z,97379
2023-02-12T04:13:07.379Z,97379
2023-02-12T04:14:15.028Z,97383
2023-02-12T04:15:24.686Z,97382
2023-02-12T04:16:36.315Z,97382
2023-02-12T04:17:44.031Z,97382
2023-02-12T04:18:53.736Z,97385
2023-02-12T04:20:01.405Z,97385
2023-02-12T04:21:10.076Z,97386
2023-02-12T04:22:19.802Z,97388
2023-02-12T04:23:28.436Z,97390
2023-02-12T04:24:38.143Z,97388
2023-02-12T04:25:47.848Z,97386
2023-02-12T04:26:56.535Z,97388
2023-02-12T04:28:06.262Z,97383
2023-02-12T04:29:13.891Z,97389
2023-02-12T04:30:22.678Z,97385
2023-02-12T04:31:31.391Z,97386
2023-02-12T04:32:39.939Z,97385
2023-02-12T04:33:48.636Z,97387
2023-02-12T04:34:57.438Z,97392
2023-02-12T04:36:06.130Z,97395
2023-02-12T04:37:15.775Z,97397
2023-02-12T04:38:23.455Z,97397
2023-02-12T04:39:33.212Z,97400
2023-02-12T04:40:42.920Z,97397
2023-02-12T04:41:52.711Z,97396
2023-02-12T04:43:02.427Z,97398
2023-02-12T04:44:11.148Z,97396
2023-02-12T04:45:20.878Z,97396
2023-02-12T04:46:30.608Z,97397
2023-02-12T04:47:39.219Z,97395
2023-02-12T04:48:47.901Z,97394
2023-02-12T04:49:57.543Z,97401
2023-02-12T04:51:05.256Z,97397
2023-02-12T04:52:14.998Z,97401
2023-02-12T04:53:23.803Z,97400
2023-02-12T04:54:32.571Z,97399
2023-02-12T04:55:42.291Z,97400
2023-02-12T04:56:52.056Z,97405
2023-02-12T04:58:01.763Z,97404
2023-02-12T04:59:11.526Z,97404
2023-02-12T05:00:21.298Z,97404
2023-02-12T05:01:31.568Z,97405
2023-02-12T05:02:40.823Z,97403
2023-02-12T05:03:49.610Z,97404
2023-02-12T05:04:59.464Z,97409
2023-02-12T05:06:09.126Z,97404
2023-02-12T05:07:17.864Z,97406
2023-02-12T05:08:27.662Z,97407
2023-02-12T05:09:37.456Z,97408
2023-02-12T05:10:47.169Z,97407
2023-02-12T05:11:55.885Z,97408
2023-02-12T05:13:05.709Z,97405
2023-02-12T05:14:15.498Z,97409
2023-02-12T05:15:24.239Z,97411
2023-02-12T05:16:34.243Z,97411
2023-02-12T05:17:43.985Z,97418
2023-02-12T05:18:53.751Z,97413
2023-02-12T05:20:03.529Z,97413
2023-02-12T05:21:13.253Z,97414
2023-02-12T05:22:23.033Z,97411
2023-02-12T05:23:32.837Z,97410
2023-02-12T05:24:41.588Z,97411
2023-02-12T05:25:51.297Z,97407
2023-02-12T05:27:01.051Z,97413
2023-02-12T05:28:09.887Z,97417
2023-02-12T05:29:19.564Z,97421
2023-02-12T05:30:29.308Z,97423
2023-02-12T05:31:39.185Z,97423
2023-02-12T05:32:48.791Z,97423
2023-02-12T05:33:58.533Z,97421
2023-02-12T05:35:07.248Z,97417
2023-02-12T05:36:16.983Z,97416
2023-02-12T05:37:26.715Z,97416
2023-02-12T05:38:37.483Z,97418
2023-02-12T05:39:47.337Z,97424
2023-02-12T05:40:57.037Z,97424
2023-02-12T05:42:06.791Z,97422
2023-02-12T05:43:15.511Z,97426
2023-02-12T05:44:25.274Z,97422
2023-02-12T05:45:35.018Z,97425
2023-02-12T05:46:43.754Z,97428
2023-02-12T05:47:53.484Z,97431
2023-02-12T05:49:03.284Z,97428
2023-02-12T05:50:13.076Z,97425
2023-02-12T05:51:21.976Z,97433
2023-02-12T05:52:31.602Z,97430
2023-02-12T05:53:41.385Z,97429
2023-02-12T05:54:50.131Z,97430
2023-02-12T05:55:59.820Z,97429
2023-02-12T05:57:09.583Z,97429
2023-02-12T05:58:19.379Z,97426
2023-02-12T05:59:29.120Z,97425
2023-02-12T06:00:38.854Z,97422
2023-02-12T06:01:48.590Z,97422
2023-02-12T06:02:58.436Z,97426
2023-02-12T06:04:08.228Z,97425
2023-02-12T06:05:17.928Z,97425
2023-02-12T06:06:28.692Z,97428
2023-02-12T06:07:37.460Z,97426
2023-02-12T06:08:47.492Z,97432
2023-02-12T06:09:57.246Z,97430
2023-02-12T06:11:06.961Z,97437
2023-02-12T06:12:16.691Z,97437
2023-02-12T06:13:26.394Z,97440
2023-02-12T06:14:35.185Z,97435
2023-02-12T06:15:44.941Z,97438
2023-02-12T06:16:52.691Z,97441
2023-02-12T06:18:01.403Z,97442
2023-02-12T06:19:10.188Z,97445
2023-02-12T06:20:18.966Z,97443
2023-02-12T06:21:28.691Z,97445
2023-02-12T06:22:37.410Z,97445
2023-02-12T06:23:47.174Z,97452
2023-02-12T06:24:56.943Z,97443
2023-02-12T06:26:05.742Z,97446
2023-02-12T06:27:15.490Z,97448
2023-02-12T06:28:25.313Z,97449
2023-02-12T06:29:35.054Z,97452
2023-02-12T06:30:44.888Z,97452
2023-02-12T06:31:54.749Z,97453
2023-02-12T06:33:04.367Z,97459
2023-02-12T06:34:14.134Z,97453
2023-02-12T06:35:22.956Z,97455
2023-02-12T06:36:32.688Z,97462
2023-02-12T06:37:42.511Z,97454
2023-02-12T06:38:52.259Z,97455
2023-02-12T06:40:01.982Z,97455
2023-02-12T06:41:11.761Z,97459
2023-02-12T06:42:21.537Z,97459
2023-02-12T06:43:32.404Z,97463
2023-02-12T06:44:42.182Z,97462
2023-02-12T06:45:49.918Z,97463
2023-02-12T06:46:59.752Z,97462
2023-02-12T06:48:09.448Z,97461
2023-02-12T06:49:19.213Z,97460
2023-02-12T06:50:27.944Z,97458
2023-02-12T06:51:36.656Z,97460
2023-02-12T06:52:46.412Z,97456
2023-02-12T06:53:56.165Z,97460
2023-02-12T06:55:04.940Z,97462
2023-02-12T06:56:14.678Z,97460
2023-02-12T06:57:24.396Z,97460
2023-02-12T06:58:34.108Z,97461
2023-02-12T06:59:43.856Z,97465
2023-02-12T07:00:53.635Z,97463
2023-02-12T07:02:03.365Z,97466
2023-02-12T07:03:11.071Z,97465
2023-02-12T07:04:20.985Z,97464
2023-02-12T07:05:30.584Z,97468
2023-02-12T07:06:40.360Z,97467
2023-02-12T07:07:50.095Z,97465
2023-02-12T07:08:59.955Z,97465
2023-02-12T07:10:09.736Z,97469
2023-02-12T07:11:19.518Z,97472
2023-02-12T07:12:29.279Z,97468
2023-02-12T07:13:39.068Z,97467
2023-02-12T07:14:48.873Z,97471
2023-02-12T07:15:58.922Z,97468
2023-02-12T07:17:07.347Z,97470
2023-02-12T07:18:16.100Z,97465
2023-02-12T07:19:25.867Z,97468
2023-02-12T07:20:35.590Z,97469
2023-02-12T07:21:45.321Z,97467
2023-02-12T07:22:55.039Z,97467
2023-02-12T07:24:04.072Z,97467
2023-02-12T07:25:13.810Z,97464
2023-02-12T07:26:23.580Z,97464
2023-02-12T07:27:33.287Z,97461
2023-02-12T07:28:43.068Z,97466
2023-02-12T07:29:52.829Z,97469
2023-02-12T07:31:02.806Z,97468
2023-02-12T07:32:12.448Z,97462
2023-02-12T07:33:22.070Z,97460
2023-02-12T07:34:31.848Z,97461
2023-02-12T07:35:41.618Z,97455
2023-02-12T07:36:50.479Z,97456
2023-02-12T07:38:00.246Z,97457
2023-02-12T07:39:10.020Z,97458
2023-02-12T07:40:17.805Z,97455
2023-02-12T07:41:27.673Z,97457
2023-02-12T07:42:37.379Z,97459
2023-02-12T07:43:46.195Z,97456
2023-02-12T07:44:55.883Z,97455
2023-02-12T07:46:05.679Z,97456
2023-02-12T07:47:15.409Z,97452
2023-02-12T07:48:25.147Z,97454
2023-02-12T07:49:34.971Z,97449
2023-02-12T07:50:44.781Z,97447
2023-02-12T07:51:52.550Z,97449
2023-02-12T07:53:02.510Z,97450
2023-02-12T07:54:12.254Z,97457
2023-02-12T07:55:22.013Z,97456
2023-02-12T07:56:31.776Z,97452
2023-02-12T07:57:40.518Z,97456
2023-02-12T07:58:50.303Z,97453
2023-02-12T08:00:00.133Z,97459
2023-02-12T08:01:10.170Z,97456
2023-02-12T08:02:19.153Z,97462
2023-02-12T08:03:28.900Z,97460
2023-02-12T08:04:38.318Z,97460
2023-02-12T08:05:47.192Z,97464
2023-02-12T08:06:57.001Z,97462
2023-02-12T08:08:04.773Z,97461
2023-02-12T08:09:14.728Z,97458
2023-02-12T08:10:24.523Z,97455
2023-02-12T08:11:34.319Z,97456
2023-02-12T08:12:44.034Z,97456
2023-02-12T08:13:52.766Z,97456
2023-02-12T08:15:02.593Z,97459
2023-02-12T08:16:12.663Z,97454
2023-02-12T08:17:22.380Z,97455
2023-02-12T08:18:32.149Z,97452
2023-02-12T08:19:41.076Z,97457
2023-02-12T08:20:50.933Z,97458
2023-02-12T08:21:59.874Z,97460
2023-02-12T08:23:08.777Z,97463
2023-02-12T08:24:18.539Z,97469
2023-02-12T08:25:28.363Z,97470
2023-02-12T08:26:38.111Z,97464
2023-02-12T08:27:47.918Z,97463
2023-02-12T08:28:56.730Z,97465
2023-02-12T08:30:06.527Z,97463
2023-02-12T08:31:17.388Z,97465
2023-02-12T08:32:27.033Z,97461
2023-02-12T08:33:36.839Z,97463
2023-02-12T08:34:45.584Z,97463
2023-02-12T08:35:56.934Z,97461
2023-02-12T08:37:05.020Z,97452
2023-02-12T08:38:13.742Z,97450
2023-02-12T08:39:24.479Z,97451
2023-02-12T08:40:34.224Z,97453
2023-02-12T08:41:44.013Z,97450
2023-02-12T08:42:53.749Z,97446
2023-02-12T08:44:03.712Z,97453
2023-02-12T08:45:12.519Z,97454
2023-02-12T08:46:22.442Z,97458
2023-02-12T08:47:31.416Z,97457
2023-02-12T08:48:40.872Z,97456
2023-02-12T08:49:50.602Z,97454
2023-02-12T08:51:00.392Z,97450
2023-02-12T08:52:10.128Z,97456
2023-02-12T08:53:20.856Z,97456
2023-02-12T08:54:30.668Z,97454
2023-02-12T08:55:40.347Z,97452
2023-02-12T08:56:55.141Z,97456
2023-02-12T08:57:57.923Z,97452
2023-02-12T08:59:07.574Z,97444
2023-02-12T09:00:16.291Z,97443
2023-02-12T09:01:26.072Z,97444
2023-02-12T09:02:34.830Z,97449
2023-02-12T09:03:43.566Z,97447
2023-02-12T09:04:53.253Z,97446
2023-02-12T09:06:00.936Z,97448
2023-02-12T09:07:11.081Z,97448
2023-02-12T09:08:19.540Z,97449
2023-02-12T09:09:29.228Z,97454
2023-02-12T09:10:39.025Z,97451
2023-02-12T09:11:48.915Z,97451
2023-02-12T09:12:58.641Z,97449
2023-02-12T09:14:08.445Z,97451
2023-02-12T09:15:17.137Z,97452
2023-02-12T09:16:25.938Z,97457
2023-02-12T09:17:34.708Z,97457
2023-02-12T09:18:44.488Z,97461
2023-02-12T09:19:54.291Z,97463
2023-02-12T09:21:03.074Z,97459
2023-02-12T09:22:11.832Z,97465
2023-02-12T09:23:21.597Z,97465
2023-02-12T09:24:30.297Z,97465
2023-02-12T09:25:39.039Z,97467
2023-02-12T09:26:48.746Z,97466
2023-02-12T09:27:58.491Z,97468
2023-02-12T09:29:08.136Z,97470
2023-02-12T09:30:16.947Z,97473
2023-02-12T09:31:27.164Z,97470
2023-02-12T09:32:36.752Z,97469
2023-02-12T09:33:47.958Z,97465
2023-02-12T09:34:56.093Z,97465
2023-02-12T09:36:03.755Z,97468
2023-02-12T09:37:12.452Z,97470
2023-02-12T09:38:21.136Z,97473
2023-02-12T09:39:29.836Z,97467
2023-02-12T09:40:39.601Z,97466
2023-02-12T09:41:49.341Z,97464
2023-02-12T09:42:59.116Z,97464
2023-02-12T09:44:07.854Z,97467
2023-02-12T09:45:16.611Z,97468
2023-02-12T09:46:26.400Z,97464
2023-02-12T09:47:36.083Z,97467
2023-02-12T09:48:44.786Z,97468
2023-02-12T09:49:54.470Z,97467
2023-02-12T09:51:04.211Z,97463
2023-02-12T09:52:13.992Z,97465
2023-02-12T09:53:23.747Z,97464
2023-02-12T09:54:33.474Z,97459
2023-02-12T09:55:43.241Z,97468
2023-02-12T09:56:53.968Z,97461
2023-02-12T09:58:02.713Z,97468
2023-02-12T09:59:12.434Z,97468
2023-02-12T10:00:22.164Z,97469
2023-02-12T10:01:33.027Z,97473
2023-02-12T10:02:42.724Z,97472
2023-02-12T10:03:52.468Z,97475
2023-02-12T10:05:02.709Z,97469
2023-02-12T10:06:12.932Z,97473
2023-02-12T10:07:21.583Z,97475
2023-02-12T10:08:31.269Z,97476
2023-02-12T10:09:39.961Z,97478
2023-02-12T10:10:49.700Z,97482
2023-02-12T10:11:59.540Z,97472
2023-02-12T10:13:09.277Z,97473
2023-02-12T10:14:19.453Z,97472
2023-02-12T10:15:30.627Z,97473
2023-02-12T10:16:40.430Z,97470
2023-02-12T10:17:50.190Z,97473
2023-02-12T10:18:58.943Z,97473
2023-02-12T10:20:08.699Z,97473
2023-02-12T10:21:18.461Z,97472
2023-02-12T10:22:26.185Z,97475
2023-02-12T10:23:36.012Z,97471
2023-02-12T10:24:45.762Z,97471
2023-02-12T10:25:56.098Z,97470
2023-02-12T10:27:05.265Z,97477
2023-02-12T10:28:15.116Z,97472
2023-02-12T10:29:24.968Z,97467
2023-02-12T10:30:34.779Z,97472
2023-02-12T10:31:43.649Z,97473
2023-02-12T10:32:53.298Z,97474
2023-02-12T10:34:03.032Z,97479
2023-02-12T10:35:12.875Z,97478
2023-02-12T10:36:22.633Z,97474
2023-02-12T10:37:30.398Z,97480
2023-02-12T10:38:40.171Z,97473
2023-02-12T10:39:49.920Z,97478
2023-02-12T10:40:59.678Z,97479
2023-02-12T10:42:08.447Z,97482
2023-02-12T10:43:18.185Z,97485
2023-02-12T10:44:27.922Z,97477
2023-02-12T10:45:37.665Z,97479
2023-02-12T10:46:46.492Z,97481
2023-02-12T10:47:56.242Z,97476
2023-02-12T10:49:06.005Z,97474
2023-02-12T10:50:15.756Z,97479
2023-02-12T10:51:25.538Z,97477
2023-02-12T10:52:35.529Z,97483
2023-02-12T10:53:45.329Z,97474
2023-02-12T10:54:55.093Z,97478
2023-02-12T10:56:02.842Z,97477
2023-02-12T10:57:11.628Z,97477
2023-02-12T10:58:21.521Z,97474
2023-02-12T10:59:31.244Z,97472
2023-02-12T11:00:41.051Z,97473
2023-02-12T11:01:51.571Z,97472
2023-02-12T11:03:01.350Z,97473
2023-02-12T11:04:11.131Z,97470
2023-02-12T11:05:20.944Z,97470
2023-02-12T11:06:30.671Z,97471
2023-02-12T11:07:41.432Z,97467
2023-02-12T11:08:50.192Z,97468
2023-02-12T11:10:00.009Z,97468
2023-02-12T11:11:09.767Z,97465
2023-02-12T11:12:19.512Z,97461
2023-02-12T11:13:29.269Z,97461
2023-02-12T11:14:38.015Z,97457
2023-02-12T11:15:47.950Z,97465
2023-02-12T11:16:57.667Z,97460
2023-02-12T11:18:07.416Z,97459
2023-02-12T11:19:17.157Z,97459
2023-02-12T11:20:26.951Z,97462
2023-02-12T11:21:36.747Z,97465
2023-02-12T11:22:46.499Z,97458
2023-02-12T11:23:56.250Z,97458
2023-02-12T11:25:06.987Z,97464
2023-02-12T11:26:16.753Z,97458
2023-02-12T11:27:26.552Z,97455
2023-02-12T11:28:36.398Z,97456
2023-02-12T11:29:47.982Z,97450
2023-02-12T11:30:55.884Z,97457
2023-02-12T11:32:05.616Z,97455
2023-02-12T11:33:15.328Z,97452
2023-02-12T11:34:25.103Z,97456
2023-02-12T11:35:34.976Z,97452
2023-02-12T11:36:44.752Z,97453
2023-02-12T11:37:53.491Z,97450
2023-02-12T11:39:03.460Z,97452
2023-02-12T11:40:13.411Z,97455
2023-02-12T11:41:23.184Z,97453
2023-02-12T11:42:32.903Z,97452
2023-02-12T11:43:42.673Z,97453
2023-02-12T11:44:53.459Z,97450
2023-02-12T11:46:03.274Z,97444
2023-02-12T11:47:12.972Z,97448
2023-02-12T11:48:22.739Z,97446
2023-02-12T11:49:32.470Z,97438
2023-02-12T11:50:40.230Z,97448
2023-02-12T11:51:50.032Z,97439
2023-02-12T11:52:59.815Z,97443
2023-02-12T11:54:09.581Z,97439
2023-02-12T11:55:19.327Z,97443
2023-02-12T11:56:29.120Z,97442
2023-02-12T11:57:38.866Z,97436
2023-02-12T11:58:47.737Z,97436
2023-02-12T11:59:57.468Z,97432
2023-02-12T12:01:07.251Z,97434
2023-02-12T12:02:17.107Z,97432
2023-02-12T12:03:27.000Z,97429
2023-02-12T12:04:36.642Z,97432
2023-02-12T12:05:46.390Z,97431
2023-02-12T12:06:54.212Z,97430
2023-02-12T12:08:02.983Z,97430
2023-02-12T12:09:12.750Z,97426
2023-02-12T12:10:22.495Z,97426
2023-02-12T12:11:32.266Z,97426
2023-02-12T12:12:42.007Z,97425
2023-02-12T12:13:51.889Z,97421
2023-02-12T12:15:01.951Z,97423
2023-02-12T12:16:11.751Z,97419
2023-02-12T12:17:21.444Z,97416
2023-02-12T12:18:32.135Z,97417
2023-02-12T12:19:41.887Z,97414
2023-02-12T12:20:51.685Z,97413
2023-02-12T12:22:00.434Z,97419
2023-02-12T12:23:10.146Z,97413
2023-02-12T12:24:19.946Z,97417
2023-02-12T12:25:27.729Z,97410
2023-02-12T12:26:36.519Z,97416
2023-02-12T12:27:45.262Z,97415
2023-02-12T12:28:55.018Z,97416
2023-02-12T12:30:04.846Z,97414
2023-02-12T12:31:14.717Z,97412
2023-02-12T12:32:24.520Z,97417
2023-02-12T12:33:34.281Z,97416
2023-02-12T12:34:44.059Z,97410
2023-02-12T12:35:53.890Z,97411
2023-02-12T12:37:03.502Z,97412
2023-02-12T12:38:13.197Z,97412
2023-02-12T12:39:21.952Z,97406
2023-02-12T12:40:31.675Z,97408
2023-02-12T12:41:41.434Z,97414
2023-02-12T12:42:51.233Z,97408
2023-02-12T12:44:01.026Z,97405
2023-02-12T12:45:10.801Z,97413
2023-02-12T12:46:20.717Z,97406
2023-02-12T12:47:30.444Z,97405
2023-02-12T12:48:40.256Z,97408
2023-02-12T12:49:48.996Z,97405
2023-02-12T12:50:58.732Z,97407
2023-02-12T12:52:09.474Z,97408
2023-02-12T12:53:17.410Z,97405
2023-02-12T12:54:27.219Z,97397
2023-02-12T12:55:36.959Z,97397
2023-02-12T12:56:46.725Z,97400
2023-02-12T12:57:56.498Z,97401
2023-02-12T12:59:05.276Z,97398
2023-02-12T13:00:15.074Z,97399
2023-02-12T13:01:25.812Z,97403
2023-02-12T13:02:35.618Z,97402
2023-02-12T13:03:45.333Z,97403
2023-02-12T13:04:55.108Z,97407
2023-02-12T13:06:04.949Z,97396
2023-02-12T13:07:14.712Z,97401
2023-02-12T13:08:24.457Z,97404
2023-02-12T13:09:35.294Z,97401
2023-02-12T13:10:45.039Z,97398
2023-02-12T13:11:53.941Z,97395
2023-02-12T13:13:03.716Z,97396
2023-02-12T13:14:13.488Z,97401
2023-02-12T13:15:23.202Z,97402
2023-02-12T13:16:32.889Z,97392
2023-02-12T13:17:42.628Z,97396
2023-02-12T13:18:51.302Z,97398
2023-02-12T13:20:01.044Z,97397
2023-02-12T13:21:09.784Z,97396
2023-02-12T13:22:19.604Z,97395
2023-02-12T13:23:29.452Z,97399
2023-02-12T13:24:39.166Z,97396
2023-02-12T13:25:49.946Z,97397
2023-02-12T13:26:58.673Z,97393
2023-02-12T13:28:07.422Z,97395
2023-02-12T13:29:17.103Z,97389
2023-02-12T13:30:25.864Z,97393
2023-02-12T13:31:35.655Z,97386
2023-02-12T13:32:44.391Z,97388
2023-02-12T13:33:54.122Z,97395
2023-02-12T13:35:04.124Z,97396
2023-02-12T13:36:11.822Z,97398
2023-02-12T13:37:21.506Z,97392
2023-02-12T13:38:31.301Z,97393
2023-02-12T13:39:40.928Z,97394
2023-02-12T13:40:49.976Z,97394
2023-02-12T13:41:59.782Z,97394
2023-02-12T13:43:08.457Z,97393
2023-02-12T13:44:18.168Z,97388
2023-02-12T13:45:26.858Z,97394
2023-02-12T13:46:36.847Z,97390
2023-02-12T13:47:45.591Z,97382
2023-02-12T13:48:54.321Z,97384
2023-02-12T13:50:03.959Z,97381
2023-02-12T13:51:12.622Z,97384
2023-02-12T13:52:22.435Z,97390
2023-02-12T13:53:31.152Z,97390
2023-02-12T13:54:40.815Z,97392
2023-02-12T13:55:50.518Z,97390
2023-02-12T13:56:58.177Z,97390
2023-02-12T13:58:07.006Z,97385
2023-02-12T13:59:16.696Z,97385
2023-02-12T14:00:24.386Z,97384
2023-02-12T14:01:33.100Z,97387
2023-02-12T14:02:41.797Z,97387
2023-02-12T14:03:50.657Z,97382
2023-02-12T14:05:00.466Z,97379
2023-02-12T14:06:09.061Z,97378
2023-02-12T14:07:17.946Z,97380
2023-02-12T14:08:27.665Z,97381
2023-02-12T14:09:37.433Z,97381
2023-02-12T14:10:46.112Z,97378
2023-02-12T14:11:54.795Z,97386
2023-02-12T14:13:04.456Z,97384
2023-02-12T14:14:14.135Z,97377
2023-02-12T14:15:22.980Z,97375
2023-02-12T14:16:32.592Z,97381
2023-02-12T14:17:42.300Z,97378
2023-02-12T14:18:51.991Z,97379
2023-02-12T14:20:01.666Z,97376
2023-02-12T14:21:11.418Z,97381
2023-02-12T14:22:20.096Z,97377
2023-02-12T14:23:29.802Z,97376
2023-02-12T14:24:38.472Z,97375
2023-02-12T14:25:48.146Z,97376
2023-02-12T14:26:57.849Z,97379
2023-02-12T14:28:05.561Z,97377
2023-02-12T14:29:15.214Z,97382
2023-02-12T14:30:23.888Z,97384
2023-02-12T14:31:32.696Z,97377
2023-02-12T14:32:42.218Z,97383
2023-02-12T14:33:49.888Z,97384
2023-02-12T14:34:58.568Z,97386
2023-02-12T14:36:08.228Z,97381
2023-02-12T14:37:17.964Z,97380
2023-02-12T14:38:27.806Z,97379
2023-02-12T14:39:37.349Z,97379
2023-02-12T14:40:47.078Z,97381
2023-02-12T14:41:56.698Z,97384
2023-02-12T14:43:04.396Z,97382
2023-02-12T14:44:13.112Z,97384
2023-02-12T14:45:22.805Z,97378
2023-02-12T14:46:31.546Z,97375
2023-02-12T14:47:41.139Z,97378
2023-02-12T14:48:49.815Z,97378
2023-02-12T14:49:58.516Z,97379
2023-02-12T14:51:08.173Z,97377
2023-02-12T14:52:16.837Z,97384
2023-02-12T14:53:25.510Z,97384